Time;durP1;ratioP1;P1;durP2;ratioP2;P2;SDS_P1;SDS_P2;PMS_P1;PMS_P2;Temp;Humidity;BMP_temperature;BMP_pressure;BME280_temperature;BME280_humidity;BME280_pressure;Samples;Min_cycle;Max_cycle;Signal;HPM_P1;HPM_P2
2022/11/17 00:01:06;;;;;;;30.27;21.43;;;8.40;99.90;;;;;;5013166;28;20104;-88
2022/11/17 00:03:32;;;;;;;27.63;19.90;;;8.40;99.90;;;;;;5012192;28;20046;-87
2022/11/17 00:06:03;;;;;;;30.83;21.27;;;8.40;99.90;;;;;;5012371;28;20293;-88
2022/11/17 00:08:29;;;;;;;29.30;18.80;;;8.40;99.90;;;;;;5013594;28;20172;-87
2022/11/17 00:11:01;;;;;;;31.30;20.50;;;8.40;99.90;;;;;;5012701;28;20376;-88
2022/11/17 00:16:17;;;;;;;27.33;19.45;;;8.40;99.90;;;;;;5012662;28;20376;-87
2022/11/17 00:21:28;;;;;;;27.23;19.80;;;8.40;99.90;;;;;;4998737;28;20277;-87
2022/11/17 00:23:55;;;;;;;31.30;19.20;;;8.40;99.90;;;;;;5012207;28;20297;-87
2022/11/17 00:26:29;;;;;;;24.37;18.93;;;8.40;99.90;;;;;;4999046;28;20308;-88
2022/11/17 00:29:00;;;;;;;26.60;18.97;;;8.40;99.90;;;;;;5016614;28;20281;-87
2022/11/17 00:34:18;;;;;;;26.90;18.63;;;8.40;99.90;;;;;;5016313;28;20687;-88
2022/11/17 00:36:46;;;;;;;29.13;19.03;;;8.40;99.90;;;;;;5031895;28;20276;-87
2022/11/17 00:39:13;;;;;;;25.03;18.07;;;8.40;99.90;;;;;;5015508;28;20300;-87
2022/11/17 00:41:39;;;;;;;26.33;17.30;;;8.40;99.90;;;;;;5016290;28;20319;-88
2022/11/17 00:44:05;;;;;;;26.80;18.07;;;8.50;99.90;;;;;;5015370;28;20396;-87
2022/11/17 00:46:31;;;;;;;22.90;17.80;;;8.50;99.90;;;;;;5015138;28;20042;-88
2022/11/17 00:48:57;;;;;;;32.40;19.90;;;8.50;99.90;;;;;;5015594;28;20287;-87
2022/11/17 00:51:26;;;;;;;25.77;18.00;;;8.40;99.90;;;;;;5031815;28;20360;-88
2022/11/17 00:53:53;;;;;;;24.57;17.77;;;8.40;99.90;;;;;;5016747;28;20062;-87
2022/11/17 00:56:18;;;;;;;23.87;16.47;;;8.50;99.90;;;;;;4998859;28;20297;-87
2022/11/17 00:58:44;;;;;;;25.47;17.53;;;8.50;99.90;;;;;;5015148;28;20289;-87
2022/11/17 01:01:10;;;;;;;23.63;17.17;;;8.50;99.90;;;;;;5014849;28;20548;-87
2022/11/17 01:03:36;;;;;;;21.60;16.37;;;8.50;99.90;;;;;;5015961;28;20042;-87
2022/11/17 01:06:07;;;;;;;21.83;15.77;;;8.60;99.90;;;;;;4998700;28;20188;-87
2022/11/17 01:08:33;;;;;;;21.03;15.90;;;8.50;99.90;;;;;;5016051;28;20391;-87
2022/11/17 01:11:17;;;;;;;21.87;16.07;;;8.60;99.90;;;;;;5016147;28;20293;-86
2022/11/17 01:13:44;;;;;;;20.77;14.73;;;8.60;99.90;;;;;;5014795;28;20303;-86
2022/11/17 01:16:12;;;;;;;21.27;15.47;;;8.60;99.90;;;;;;5015667;28;20291;-87
2022/11/17 01:18:38;;;;;;;22.87;15.10;;;8.60;99.90;;;;;;5016313;28;20364;-86
2022/11/17 01:21:10;;;;;;;22.40;15.17;;;8.60;99.90;;;;;;5014396;28;20291;-87
2022/11/17 01:23:42;;;;;;;18.73;14.97;;;8.60;99.90;;;;;;5015613;28;20297;-86
2022/11/17 01:26:09;;;;;;;19.70;14.73;;;8.50;99.90;;;;;;5016004;28;20273;-88
2022/11/17 01:28:36;;;;;;;20.80;14.37;;;8.60;99.90;;;;;;5014364;28;20308;-87
2022/11/17 01:31:05;;;;;;;20.67;13.87;;;8.60;99.90;;;;;;4998495;28;20336;-87
2022/11/17 01:33:32;;;;;;;19.50;14.53;;;8.60;99.90;;;;;;5015512;28;20277;-88
2022/11/17 01:36:09;;;;;;;18.23;15.33;;;8.60;99.90;;;;;;5013654;28;20602;-87
2022/11/17 01:38:35;;;;;;;21.67;15.17;;;8.50;99.90;;;;;;5014429;28;20781;-87
2022/11/17 01:41:03;;;;;;;17.80;13.90;;;8.50;99.90;;;;;;5015354;28;20287;-82
2022/11/17 01:43:40;;;;;;;22.37;15.30;;;8.50;99.90;;;;;;5014143;28;20081;-87
2022/11/17 01:46:30;;;;;;;18.97;14.83;;;8.60;99.90;;;;;;5016025;28;20375;-86
2022/11/17 01:49:16;;;;;;;19.90;14.00;;;8.50;99.90;;;;;;5014625;28;20353;-87
2022/11/17 01:51:47;;;;;;;19.47;15.73;;;8.50;99.90;;;;;;5014179;28;20292;-87
2022/11/17 01:54:16;;;;;;;21.63;16.90;;;8.50;99.90;;;;;;5015808;28;20277;-87
2022/11/17 01:56:45;;;;;;;23.67;15.20;;;8.50;99.90;;;;;;5014019;28;20284;-87
2022/11/17 01:59:21;;;;;;;21.33;14.33;;;8.50;99.90;;;;;;5014293;28;20289;-86
2022/11/17 02:01:57;;;;;;;18.30;13.80;;;8.50;99.90;;;;;;5014937;28;20297;-87
2022/11/17 02:04:42;;;;;;;19.10;14.13;;;8.50;99.90;;;;;;5014770;28;20371;-88
2022/11/17 02:07:11;;;;;;;17.13;13.73;;;8.60;99.90;;;;;;5014910;28;20103;-87
2022/11/17 02:09:39;;;;;;;17.37;14.03;;;8.50;99.90;;;;;;5014544;28;20060;-87
2022/11/17 02:12:08;;;;;;;18.40;13.50;;;8.50;99.90;;;;;;5013386;28;20277;-83
2022/11/17 02:14:35;;;;;;;21.83;15.27;;;8.50;99.90;;;;;;5013681;28;20292;-87
2022/11/17 02:17:02;;;;;;;15.97;13.47;;;8.50;99.90;;;;;;5013602;28;20343;-86
2022/11/17 02:19:35;;;;;;;20.13;15.07;;;8.50;99.90;;;;;;5014842;28;20285;-86
2022/11/17 02:22:29;;;;;;;18.90;13.73;;;8.50;99.90;;;;;;5013871;28;20363;-86
2022/11/17 02:25:32;;;;;;;17.63;13.87;;;8.50;99.90;;;;;;4996932;28;20305;-86
2022/11/17 02:28:19;;;;;;;20.47;13.93;;;8.50;99.90;;;;;;5013539;28;20296;-85
2022/11/17 02:31:11;;;;;;;21.47;14.07;;;8.50;99.90;;;;;;5013323;28;20293;-86
2022/11/17 02:33:36;;;;;;;18.83;13.80;;;8.50;99.90;;;;;;5013290;28;20784;-85
2022/11/17 02:36:26;;;;;;;21.20;15.00;;;8.50;99.90;;;;;;5015190;28;20285;-82
2022/11/17 02:39:09;;;;;;;20.77;14.10;;;8.40;99.90;;;;;;4997390;28;20057;-81
2022/11/17 02:41:43;;;;;;;21.77;14.77;;;8.50;99.90;;;;;;5013481;28;20388;-79
2022/11/17 02:44:24;;;;;;;20.75;15.30;;;8.40;99.90;;;;;;5013160;28;20280;-79
2022/11/17 02:46:55;;;;;;;19.50;14.63;;;8.40;99.90;;;;;;5030064;28;20067;-78
2022/11/17 02:49:28;;;;;;;19.50;15.10;;;8.40;99.90;;;;;;5013170;28;20306;-79
2022/11/17 02:51:57;;;;;;;20.77;14.10;;;8.40;99.90;;;;;;5013122;28;20289;-79
2022/11/17 02:54:25;;;;;;;22.47;15.60;;;8.40;99.90;;;;;;5013612;28;20289;-79
2022/11/17 02:56:51;;;;;;;23.57;16.30;;;8.40;99.90;;;;;;5014083;28;20338;-79
2022/11/17 02:59:26;;;;;;;22.87;15.90;;;8.30;99.90;;;;;;4980593;28;20653;-79
2022/11/17 03:02:22;;;;;;;25.27;16.33;;;8.30;99.90;;;;;;5013551;28;20057;-78
2022/11/17 03:04:48;;;;;;;21.10;16.23;;;8.30;99.90;;;;;;5013567;28;20046;-78
2022/11/17 03:07:29;;;;;;;21.60;15.00;;;8.30;99.90;;;;;;5013478;28;20362;-78
2022/11/17 03:10:18;;;;;;;20.93;15.13;;;8.30;99.90;;;;;;4996340;28;20054;-77
2022/11/17 03:13:04;;;;;;;19.87;15.33;;;8.20;99.90;;;;;;4996907;28;20301;-77
2022/11/17 03:16:24;;;;;;;22.90;16.70;;;8.20;99.90;;;;;;5014658;28;20618;-77
2022/11/17 03:19:12;;;;;;;25.07;16.80;;;8.20;99.90;;;;;;4959799;28;20286;-75
2022/11/17 03:21:58;;;;;;;21.83;17.27;;;8.20;99.90;;;;;;4995425;28;20356;-76
2022/11/17 03:24:34;;;;;;;26.73;17.52;;;8.20;99.90;;;;;;5013832;28;20281;-75
2022/11/17 03:27:07;;;;;;;22.50;16.10;;;8.20;99.90;;;;;;5013818;28;20054;-75
2022/11/17 03:29:34;;;;;;;26.10;17.30;;;8.20;99.90;;;;;;5013077;28;20594;-76
2022/11/17 03:32:03;;;;;;;22.67;17.50;;;8.10;99.90;;;;;;5013591;28;20325;-75
2022/11/17 03:34:34;;;;;;;22.47;15.17;;;8.20;99.90;;;;;;5013699;28;20288;-75
2022/11/17 03:37:03;;;;;;;23.17;16.27;;;8.10;99.90;;;;;;5013761;28;20279;-75
2022/11/17 03:39:40;;;;;;;19.40;13.97;;;8.10;99.90;;;;;;5012945;28;20288;-75
2022/11/17 03:42:21;;;;;;;19.63;15.67;;;8.10;99.90;;;;;;5013167;28;20301;-74
2022/11/17 03:44:53;;;;;;;20.83;16.73;;;8.10;99.90;;;;;;5014218;28;20602;-74
2022/11/17 03:47:22;;;;;;;22.60;17.73;;;8.20;99.90;;;;;;5013612;28;20291;-75
2022/11/17 03:50:04;;;;;;;22.93;15.63;;;8.10;99.90;;;;;;5012348;28;20283;-74
2022/11/17 03:52:32;;;;;;;21.07;15.07;;;8.10;99.90;;;;;;5013550;28;20749;-75
2022/11/17 03:54:58;;;;;;;18.67;15.40;;;8.10;99.90;;;;;;5012371;28;20364;-73
2022/11/17 03:57:24;;;;;;;23.57;16.47;;;8.10;99.90;;;;;;5013380;28;20400;-74
2022/11/17 04:00:08;;;;;;;19.23;15.23;;;8.10;99.90;;;;;;5013799;28;20133;-74
2022/11/17 04:02:34;;;;;;;20.07;15.23;;;8.10;99.90;;;;;;5017347;28;20549;-75
2022/11/17 04:05:06;;;;;;;21.00;15.20;;;8.10;99.90;;;;;;5017156;28;20296;-75
2022/11/17 04:07:43;;;;;;;19.37;15.50;;;8.10;99.90;;;;;;5016483;28;20347;-74
2022/11/17 04:10:17;;;;;;;21.40;15.90;;;8.10;99.90;;;;;;5016547;28;20343;-75
2022/11/17 04:16:10;;;;;;;19.30;14.23;;;8.10;99.90;;;;;;5016016;28;20453;-74
2022/11/17 04:18:18;;;;;;;21.77;15.63;;;8.10;99.90;;;;;;5002948;28;20369;-74
2022/11/17 04:20:44;;;;;;;18.40;14.63;;;8.10;99.90;;;;;;4999594;28;20834;-74
2022/11/17 04:23:14;;;;;;;18.13;13.30;;;8.10;99.90;;;;;;5000080;28;20304;-74
2022/11/17 04:28:43;;;;;;;19.60;14.30;;;8.20;99.90;;;;;;5016485;28;20639;-75
2022/11/17 04:31:19;;;;;;;16.13;13.00;;;8.20;99.90;;;;;;5017464;28;20360;-75
2022/11/17 04:33:56;;;;;;;18.53;13.00;;;8.20;99.90;;;;;;5015634;28;20304;-76
2022/11/17 04:36:28;;;;;;;16.77;12.13;;;8.10;99.90;;;;;;5015355;28;20293;-80
2022/11/17 04:38:55;;;;;;;16.27;12.60;;;8.20;99.90;;;;;;5016402;28;20296;-76
2022/11/17 04:44:07;;;;;;;15.30;12.13;;;8.10;99.90;;;;;;5015703;28;20285;-76
2022/11/17 04:46:35;;;;;;;16.43;12.90;;;8.10;99.90;;;;;;4999532;28;20378;-77
2022/11/17 04:49:01;;;;;;;15.57;12.20;;;8.10;99.90;;;;;;5015407;28;20289;-76
2022/11/17 04:51:29;;;;;;;17.87;13.30;;;8.00;99.90;;;;;;5016282;28;20292;-77
2022/11/17 04:53:55;;;;;;;13.60;11.43;;;8.10;99.90;;;;;;5015248;28;20297;-77
2022/11/17 04:56:22;;;;;;;15.47;12.40;;;8.00;99.90;;;;;;5014982;28;20285;-77
2022/11/17 04:58:48;;;;;;;16.10;11.40;;;8.00;99.90;;;;;;5015189;28;20284;-77
2022/11/17 05:01:17;;;;;;;13.97;11.23;;;8.00;99.90;;;;;;4998952;28;20289;-77
2022/11/17 05:03:54;;;;;;;13.60;11.60;;;8.00;99.90;;;;;;4982629;28;20307;-77
2022/11/17 05:06:31;;;;;;;14.53;10.67;;;8.00;99.90;;;;;;5014776;28;20860;-77
2022/11/17 05:08:58;;;;;;;13.73;11.10;;;8.00;99.90;;;;;;5015575;28;20300;-77
2022/11/17 05:14:12;;;;;;;15.30;11.00;;;8.00;99.90;;;;;;5014953;28;20301;-77
2022/11/17 05:19:25;;;;;;;13.73;12.10;;;8.00;99.90;;;;;;5015336;28;20284;-77
2022/11/17 05:21:51;;;;;;;14.33;11.83;;;8.00;99.90;;;;;;5016416;28;20728;-77
2022/11/17 05:24:17;;;;;;;12.67;10.80;;;7.90;99.90;;;;;;5016221;28;20328;-77
2022/11/17 05:26:45;;;;;;;14.17;11.90;;;7.90;99.90;;;;;;5015481;28;20042;-76
2022/11/17 05:29:13;;;;;;;15.43;12.47;;;7.90;99.90;;;;;;5015558;28;20288;-77
2022/11/17 05:31:39;;;;;;;13.80;11.57;;;7.90;99.90;;;;;;5014366;28;20288;-77
2022/11/17 05:34:06;;;;;;;14.87;11.43;;;7.90;99.90;;;;;;5014278;28;20776;-77
2022/11/17 05:36:33;;;;;;;14.20;11.97;;;7.90;99.90;;;;;;5014333;28;20292;-77
2022/11/17 05:38:59;;;;;;;11.07;9.87;;;7.80;99.90;;;;;;5014518;28;20293;-77
2022/11/17 05:41:26;;;;;;;13.00;10.67;;;7.80;99.90;;;;;;5014462;28;20295;-77
2022/11/17 05:43:52;;;;;;;14.80;10.90;;;7.80;99.90;;;;;;5014337;28;20304;-77
2022/11/17 05:46:19;;;;;;;13.90;11.17;;;7.90;99.90;;;;;;5014305;28;20291;-78
2022/11/17 05:48:47;;;;;;;16.47;12.30;;;7.80;99.90;;;;;;4997932;28;20082;-78
2022/11/17 05:51:13;;;;;;;14.43;11.93;;;7.80;99.90;;;;;;5015236;28;20757;-77
2022/11/17 05:53:39;;;;;;;13.43;12.00;;;7.80;99.90;;;;;;5015160;28;20277;-78
2022/11/17 05:56:12;;;;;;;15.63;11.60;;;7.80;99.90;;;;;;4998546;28;20815;-78
2022/11/17 05:58:41;;;;;;;13.47;10.77;;;7.70;99.90;;;;;;5014127;28;20042;-78
2022/11/17 06:01:10;;;;;;;14.60;10.70;;;7.80;99.90;;;;;;5014071;28;20289;-78
2022/11/17 06:03:45;;;;;;;13.87;10.63;;;7.70;99.90;;;;;;4998208;28;20401;-78
2022/11/17 06:06:11;;;;;;;11.17;9.40;;;7.70;99.90;;;;;;5014754;28;20765;-78
2022/11/17 06:08:37;;;;;;;12.20;9.97;;;7.70;99.90;;;;;;5013513;28;20297;-79
2022/11/17 06:11:03;;;;;;;12.87;10.67;;;7.60;99.90;;;;;;5015439;28;20132;-77
2022/11/17 06:13:28;;;;;;;13.13;9.63;;;7.70;99.90;;;;;;4998360;28;20046;-77
2022/11/17 06:15:56;;;;;;;16.90;11.63;;;7.60;99.90;;;;;;4998225;28;20520;-78
2022/11/17 06:18:39;;;;;;;12.07;9.73;;;7.60;99.90;;;;;;4997593;28;20143;-77
2022/11/17 06:21:08;;;;;;;11.07;9.30;;;7.60;99.90;;;;;;5014552;28;20300;-78
2022/11/17 06:23:35;;;;;;;11.83;9.80;;;7.60;99.90;;;;;;5013616;28;20391;-78
2022/11/17 06:26:04;;;;;;;13.30;11.57;;;7.50;99.90;;;;;;5013454;28;20288;-78
2022/11/17 06:28:32;;;;;;;12.73;10.77;;;7.60;99.90;;;;;;5013615;28;20292;-78
2022/11/17 06:30:59;;;;;;;9.97;8.70;;;7.50;99.90;;;;;;5014439;28;20372;-78
2022/11/17 06:33:27;;;;;;;10.33;8.40;;;7.60;99.90;;;;;;4997170;28;20316;-78
2022/11/17 06:35:53;;;;;;;9.93;7.97;;;7.50;99.90;;;;;;5013148;28;20316;-78
2022/11/17 06:38:19;;;;;;;10.17;8.77;;;7.60;99.90;;;;;;5013431;28;20327;-78
2022/11/17 06:40:45;;;;;;;12.33;10.47;;;7.50;99.90;;;;;;4981236;28;20065;-79
2022/11/17 06:43:11;;;;;;;11.50;9.60;;;7.50;99.90;;;;;;5014361;28;20046;-78
2022/11/17 06:45:42;;;;;;;11.30;9.07;;;7.50;99.90;;;;;;4980861;28;20049;-76
2022/11/17 06:48:09;;;;;;;11.50;9.00;;;7.40;99.90;;;;;;5013349;28;20049;-76
2022/11/17 06:50:34;;;;;;;11.37;9.00;;;7.40;99.90;;;;;;5014504;28;20277;-77
2022/11/17 06:53:03;;;;;;;11.67;8.57;;;7.40;99.90;;;;;;5013226;28;20814;-76
2022/11/17 06:55:29;;;;;;;9.67;8.50;;;7.40;99.90;;;;;;4997153;28;20112;-77
2022/11/17 06:58:05;;;;;;;11.23;7.83;;;7.40;99.90;;;;;;5013183;28;20688;-76
2022/11/17 07:00:31;;;;;;;9.57;8.53;;;7.40;99.90;;;;;;4997079;28;20050;-76
2022/11/17 07:03:02;;;;;;;9.50;8.07;;;7.40;99.90;;;;;;4980463;28;20657;-76
2022/11/17 07:05:29;;;;;;;9.00;7.80;;;7.30;99.90;;;;;;5014008;28;20786;-77
2022/11/17 07:07:57;;;;;;;11.10;8.40;;;7.30;99.90;;;;;;4996660;28;20300;-77
2022/11/17 07:10:23;;;;;;;9.90;8.40;;;7.40;99.90;;;;;;4995952;28;20289;-76
2022/11/17 07:12:48;;;;;;;10.33;7.83;;;7.40;99.90;;;;;;5012667;28;20807;-76
2022/11/17 07:15:14;;;;;;;11.17;8.23;;;7.40;99.90;;;;;;5012463;28;20045;-77
2022/11/17 07:17:40;;;;;;;9.63;7.70;;;7.40;99.90;;;;;;5012987;28;20042;-76
2022/11/17 07:20:06;;;;;;;9.17;7.60;;;7.30;99.90;;;;;;4996448;28;20437;-77
2022/11/17 07:22:32;;;;;;;12.93;9.33;;;7.40;99.90;;;;;;5029458;28;20131;-77
2022/11/17 07:24:58;;;;;;;10.07;8.30;;;7.40;99.90;;;;;;5012865;28;20329;-77
2022/11/17 07:27:23;;;;;;;10.43;7.53;;;7.40;99.90;;;;;;5012839;28;20053;-77
2022/11/17 07:29:49;;;;;;;9.03;7.33;;;7.40;99.90;;;;;;4997319;28;20042;-78
2022/11/17 07:32:15;;;;;;;8.60;7.60;;;7.40;99.90;;;;;;4996271;28;20492;-77
2022/11/17 07:34:41;;;;;;;9.10;8.17;;;7.40;99.90;;;;;;4998981;28;20045;-77
2022/11/17 07:37:07;;;;;;;9.43;7.87;;;7.40;99.90;;;;;;5000550;28;20060;-77
2022/11/17 07:39:32;;;;;;;11.07;7.97;;;7.40;99.90;;;;;;5016546;28;20281;-77
2022/11/17 07:41:58;;;;;;;9.60;8.10;;;7.40;99.90;;;;;;5001029;28;20137;-77
2022/11/17 07:44:24;;;;;;;9.17;7.73;;;7.40;99.90;;;;;;4984134;28;20054;-77
2022/11/17 07:46:49;;;;;;;9.30;7.53;;;7.40;99.90;;;;;;4984344;28;20046;-79
2022/11/17 07:49:15;;;;;;;8.50;7.50;;;7.40;99.90;;;;;;5000204;28;20100;-78
2022/11/17 07:51:41;;;;;;;8.20;7.00;;;7.30;99.90;;;;;;5000938;28;20134;-77
2022/11/17 07:54:07;;;;;;;9.37;7.93;;;7.40;99.90;;;;;;5000140;28;20475;-78
2022/11/17 07:56:33;;;;;;;7.87;6.80;;;7.40;99.90;;;;;;5016818;28;20050;-77
2022/11/17 07:58:59;;;;;;;9.80;7.83;;;7.40;99.90;;;;;;5000840;28;20099;-77
2022/11/17 08:01:26;;;;;;;8.63;7.03;;;7.40;99.90;;;;;;5000058;28;20293;-78
2022/11/17 08:03:52;;;;;;;8.83;6.83;;;7.40;99.90;;;;;;4983876;28;20540;-78
2022/11/17 08:06:18;;;;;;;8.03;6.90;;;7.40;99.90;;;;;;5016199;28;20797;-77
2022/11/17 08:08:44;;;;;;;7.63;6.03;;;7.40;99.90;;;;;;4999858;28;20347;-77
2022/11/17 08:11:11;;;;;;;9.63;7.10;;;7.40;99.90;;;;;;5015924;28;20406;-76
2022/11/17 08:13:39;;;;;;;8.77;7.67;;;7.40;99.90;;;;;;5017026;28;20280;-76
2022/11/17 08:16:05;;;;;;;9.53;7.03;;;7.40;99.90;;;;;;5016064;28;20281;-76
2022/11/17 08:18:31;;;;;;;8.90;7.50;;;7.40;99.90;;;;;;5015989;28;20638;-74
2022/11/17 08:21:06;;;;;;;8.47;7.07;;;7.40;99.90;;;;;;5016885;28;20281;-74
2022/11/17 08:23:32;;;;;;;9.70;7.00;;;7.30;99.90;;;;;;5016178;28;20305;-74
2022/11/17 08:25:58;;;;;;;9.37;7.90;;;7.40;99.90;;;;;;5016827;28;20281;-76
2022/11/17 08:28:24;;;;;;;8.60;7.10;;;7.30;99.90;;;;;;5016049;28;20285;-73
2022/11/17 08:30:49;;;;;;;9.67;7.30;;;7.30;99.90;;;;;;5000193;28;20811;-75
2022/11/17 08:33:15;;;;;;;8.80;6.83;;;7.30;99.90;;;;;;4983203;28;20046;-73
2022/11/17 08:35:41;;;;;;;8.67;7.17;;;7.40;99.90;;;;;;5016985;28;20056;-74
2022/11/17 08:38:10;;;;;;;10.00;7.67;;;7.30;99.90;;;;;;5015693;28;20486;-73
2022/11/17 08:40:36;;;;;;;9.07;7.07;;;7.40;99.90;;;;;;5016602;28;20096;-73
2022/11/17 08:43:03;;;;;;;9.27;7.37;;;7.40;99.90;;;;;;5016460;28;20300;-75
2022/11/17 08:45:30;;;;;;;9.87;8.10;;;7.30;99.90;;;;;;5014420;28;20284;-74
2022/11/17 08:47:56;;;;;;;10.47;7.63;;;7.30;99.90;;;;;;5015386;28;20656;-75
2022/11/17 08:50:22;;;;;;;8.67;7.60;;;7.30;99.90;;;;;;4999241;28;20293;-74
2022/11/17 08:52:47;;;;;;;9.53;7.73;;;7.30;99.90;;;;;;5016104;28;20343;-74
2022/11/17 08:55:13;;;;;;;9.93;7.40;;;7.30;99.90;;;;;;5016002;28;20053;-75
2022/11/17 08:57:39;;;;;;;8.43;6.63;;;7.30;99.90;;;;;;5015152;28;20053;-74
2022/11/17 09:00:06;;;;;;;10.03;7.83;;;7.30;99.90;;;;;;5015256;28;20438;-74
2022/11/17 09:02:32;;;;;;;9.27;7.03;;;7.30;99.90;;;;;;5015020;28;20053;-74
2022/11/17 09:04:57;;;;;;;7.70;6.50;;;7.30;99.90;;;;;;4998954;28;20339;-75
2022/11/17 09:07:23;;;;;;;7.20;6.00;;;7.30;99.90;;;;;;5015125;28;20780;-74
2022/11/17 09:09:49;;;;;;;7.73;6.90;;;7.40;99.90;;;;;;5016197;28;20060;-73
2022/11/17 09:12:15;;;;;;;9.30;6.93;;;7.40;99.90;;;;;;5014793;28;20061;-73
2022/11/17 09:14:41;;;;;;;9.13;6.37;;;7.30;99.90;;;;;;4999639;28;20176;-73
2022/11/17 09:17:06;;;;;;;8.03;6.00;;;7.30;99.90;;;;;;5015172;28;20371;-75
2022/11/17 09:19:32;;;;;;;9.93;6.20;;;7.40;99.90;;;;;;5016435;28;20049;-75
2022/11/17 09:21:58;;;;;;;7.53;5.90;;;7.40;99.90;;;;;;5014742;28;20038;-76
2022/11/17 09:24:25;;;;;;;8.83;6.47;;;7.40;99.90;;;;;;5014337;28;20508;-75
2022/11/17 09:26:56;;;;;;;9.43;6.50;;;7.30;99.90;;;;;;5014635;28;20360;-75
2022/11/17 09:29:21;;;;;;;9.33;7.07;;;7.30;99.90;;;;;;5015505;28;20280;-75
2022/11/17 09:31:47;;;;;;;8.77;7.07;;;7.40;99.90;;;;;;5015488;28;20293;-75
2022/11/17 09:34:13;;;;;;;9.17;7.17;;;7.40;99.90;;;;;;5015563;28;20045;-75
2022/11/17 09:36:40;;;;;;;7.60;6.20;;;7.40;99.90;;;;;;5014426;28;20273;-74
2022/11/17 09:39:06;;;;;;;9.37;7.20;;;7.40;99.90;;;;;;5015721;28;20050;-74
2022/11/17 09:41:40;;;;;;;10.20;7.20;;;7.40;99.90;;;;;;5016007;28;20281;-75
2022/11/17 09:44:21;;;;;;;7.43;6.30;;;7.40;99.90;;;;;;5014428;28;20037;-74
2022/11/17 09:47:02;;;;;;;8.03;7.10;;;7.40;99.90;;;;;;5015989;28;20281;-75
2022/11/17 09:49:52;;;;;;;9.43;7.30;;;7.40;99.90;;;;;;5015105;28;20383;-75
2022/11/17 09:52:34;;;;;;;10.97;7.37;;;7.40;99.90;;;;;;4998220;28;20331;-75
2022/11/17 09:55:25;;;;;;;9.07;6.83;;;7.40;99.90;;;;;;5014834;28;20303;-76
2022/11/17 09:58:02;;;;;;;8.13;6.67;;;7.40;99.90;;;;;;5013958;28;20768;-76
2022/11/17 10:00:30;;;;;;;10.07;8.03;;;7.40;99.90;;;;;;5015729;28;20288;-77
2022/11/17 10:02:56;;;;;;;7.43;6.33;;;7.40;99.90;;;;;;4998060;28;20706;-77
2022/11/17 10:05:31;;;;;;;7.70;6.10;;;7.40;99.90;;;;;;4997725;28;20316;-76
2022/11/17 10:08:05;;;;;;;8.88;7.05;;;7.40;99.90;;;;;;4997679;28;20054;-77
2022/11/17 10:10:41;;;;;;;8.23;6.17;;;7.40;99.90;;;;;;5013485;28;20419;-79
2022/11/17 10:13:14;;;;;;;;;;;7.40;99.90;;;;;;5015186;28;20293;-78
2022/11/17 10:15:50;;;;;;;7.20;5.93;;;7.40;99.90;;;;;;5013741;28;19989;-78
2022/11/17 10:18:22;;;;;;;9.33;6.70;;;7.40;99.90;;;;;;5130741;27;20406;-79
2022/11/17 10:20:48;;;;;;;8.03;6.50;;;7.40;99.90;;;;;;5121610;27;20350;-79
2022/11/17 10:23:18;;;;;;;7.70;5.97;;;7.40;99.90;;;;;;5119545;28;20123;-78
2022/11/17 10:25:57;;;;;;;9.60;6.53;;;7.40;99.90;;;;;;5119828;27;20115;-76
2022/11/17 10:28:29;;;;;;;8.30;6.40;;;7.40;99.90;;;;;;5119431;27;20313;-78
2022/11/17 10:30:59;;;;;;;7.57;5.67;;;7.40;99.90;;;;;;5119755;28;20638;-76
2022/11/17 10:33:51;;;;;;;9.20;6.43;;;7.40;99.90;;;;;;5121393;28;20289;-77
2022/11/17 10:36:17;;;;;;;8.93;6.53;;;7.40;99.90;;;;;;5108224;28;20314;-75
2022/11/17 10:38:48;;;;;;;8.13;5.60;;;7.40;99.90;;;;;;5110824;28;20296;-77
2022/11/17 10:41:21;;;;;;;8.57;6.07;;;7.40;99.90;;;;;;5109617;28;20083;-76
2022/11/17 10:44:22;;;;;;;8.43;5.47;;;7.40;99.90;;;;;;5110385;28;20760;-74
2022/11/17 10:46:55;;;;;;;8.27;5.63;;;7.40;99.90;;;;;;5107287;28;20301;-75
2022/11/17 10:49:35;;;;;;;8.30;6.03;;;7.40;99.90;;;;;;5110321;28;20286;-75
2022/11/17 10:52:14;;;;;;;6.87;5.37;;;7.50;99.90;;;;;;5110583;28;20278;-79
2022/11/17 10:54:39;;;;;;;7.10;5.50;;;7.50;99.90;;;;;;5110815;28;20606;-75
2022/11/17 10:57:18;;;;;;;8.03;6.47;;;7.50;99.90;;;;;;5110363;28;20298;-76
2022/11/17 10:59:45;;;;;;;9.17;5.17;;;7.50;99.90;;;;;;5110456;28;20130;-75
2022/11/17 11:02:27;;;;;;;8.47;6.80;;;7.60;99.90;;;;;;5109235;28;20661;-77
2022/11/17 11:05:17;;;;;;;9.37;7.27;;;7.50;99.90;;;;;;5109035;28;20300;-76
2022/11/17 11:07:43;;;;;;;9.40;7.00;;;7.50;99.90;;;;;;5110386;28;20276;-77
2022/11/17 11:10:24;;;;;;;7.23;5.73;;;7.50;99.90;;;;;;5108773;28;20757;-75
2022/11/17 11:13:20;;;;;;;7.10;5.67;;;7.60;99.90;;;;;;5109195;28;20050;-75
2022/11/17 11:15:47;;;;;;;7.23;5.53;;;7.60;99.90;;;;;;5109152;28;20295;-76
2022/11/17 11:18:17;;;;;;;7.83;5.53;;;7.60;99.90;;;;;;5109805;28;20294;-76
2022/11/17 11:20:55;;;;;;;8.60;5.77;;;7.60;99.90;;;;;;5110188;28;20289;-76
2022/11/17 11:23:33;;;;;;;9.03;6.03;;;7.70;99.90;;;;;;5109846;28;20278;-78
2022/11/17 11:26:10;;;;;;;10.00;6.87;;;7.80;99.90;;;;;;5092014;28;20373;-78
2022/11/17 11:29:03;;;;;;;9.73;6.93;;;7.70;99.90;;;;;;5101156;28;20385;-77
2022/11/17 11:31:48;;;;;;;8.23;6.40;;;7.80;99.90;;;;;;5094997;28;20288;-76
2022/11/17 11:34:36;;;;;;;8.17;6.10;;;7.80;99.90;;;;;;5095893;28;20286;-80
2022/11/17 11:37:09;;;;;;;11.70;7.70;;;7.80;99.90;;;;;;5094955;28;20338;-75
2022/11/17 11:39:37;;;;;;;9.53;7.20;;;7.80;99.90;;;;;;5094745;28;20325;-75
2022/11/17 11:42:28;;;;;;;8.97;7.27;;;7.90;99.90;;;;;;5095979;28;20297;-75
2022/11/17 11:45:19;;;;;;;8.63;6.00;;;7.90;99.90;;;;;;5096081;28;20381;-76
2022/11/17 11:47:55;;;;;;;7.20;5.80;;;7.90;99.90;;;;;;5078310;28;20780;-76
2022/11/17 11:50:25;;;;;;;10.87;7.43;;;7.90;99.90;;;;;;5094686;28;20384;-78
2022/11/17 11:53:04;;;;;;;8.83;7.30;;;7.90;99.90;;;;;;5106763;28;20277;-77
2022/11/17 11:55:34;;;;;;;9.20;7.17;;;7.90;99.90;;;;;;5112493;28;20330;-78
2022/11/17 11:58:20;;;;;;;6.17;4.80;;;8.00;99.90;;;;;;5098001;28;20305;-79
2022/11/17 12:01:04;;;;;;;6.03;4.40;;;7.90;99.90;;;;;;5115042;28;20293;-78
2022/11/17 12:03:57;;;;;;;8.10;4.20;;;7.90;99.90;;;;;;5097767;28;20328;-78
2022/11/17 12:06:44;;;;;;;5.90;4.33;;;7.90;99.90;;;;;;5115751;28;20312;-77
2022/11/17 12:09:47;;;;;;;6.40;4.27;;;7.90;99.90;;;;;;5115835;28;20335;-77
2022/11/17 12:12:19;;;;;;;5.63;3.93;;;7.90;99.90;;;;;;5098014;28;20297;-77
2022/11/17 12:15:09;;;;;;;7.37;4.47;;;7.90;99.90;;;;;;5114732;28;20328;-76
2022/11/17 12:17:36;;;;;;;6.60;4.67;;;7.90;99.90;;;;;;5114012;28;20321;-76
2022/11/17 12:20:23;;;;;;;7.80;5.90;;;7.90;99.90;;;;;;5115684;27;20286;-76
2022/11/17 12:23:05;;;;;;;6.07;4.60;;;7.90;99.90;;;;;;5114566;28;20328;-76
2022/11/17 12:25:34;;;;;;;8.00;5.20;;;7.90;99.90;;;;;;5115285;28;20274;-76
2022/11/17 12:28:36;;;;;;;6.17;4.83;;;8.00;99.90;;;;;;5114456;28;20300;-76
2022/11/17 12:31:03;;;;;;;7.33;5.03;;;8.00;99.90;;;;;;5115528;28;20633;-79
2022/11/17 12:33:51;;;;;;;7.90;5.37;;;8.00;99.90;;;;;;5115074;28;20350;-79
2022/11/17 12:36:23;;;;;;;10.77;4.90;;;8.00;99.90;;;;;;5103056;28;20781;-80
2022/11/17 12:38:49;;;;;;;7.50;5.27;;;8.10;99.90;;;;;;5094937;28;20320;-79
2022/11/17 12:41:47;;;;;;;7.60;5.20;;;8.10;99.90;;;;;;5092803;28;20331;-78
2022/11/17 12:44:37;;;;;;;6.97;5.23;;;8.10;99.90;;;;;;5093454;28;20373;-78
2022/11/17 12:47:12;;;;;;;11.17;5.63;;;8.10;99.90;;;;;;5094990;28;20286;-78
2022/11/17 12:50:20;;;;;;;7.87;5.73;;;8.20;99.90;;;;;;5093209;28;20290;-78
2022/11/17 12:52:53;;;;;;;12.40;5.70;;;8.20;99.90;;;;;;5054745;28;20329;-79
2022/11/17 12:55:28;;;;;;;9.07;6.13;;;8.20;99.90;;;;;;5076720;28;20294;-78
2022/11/17 12:58:20;;;;;;;6.85;5.43;;;8.20;99.90;;;;;;5094799;28;20334;-79
2022/11/17 13:01:01;;;;;;;10.53;5.80;;;8.30;99.90;;;;;;5093304;28;20603;-75
2022/11/17 13:04:18;;;;;;;7.33;5.37;;;8.30;99.90;;;;;;5094107;28;20293;-79
2022/11/17 13:07:20;;;;;;;8.70;5.90;;;8.40;99.90;;;;;;5077579;28;20448;-77
2022/11/17 13:09:56;;;;;;;8.77;6.33;;;8.40;99.90;;;;;;5092399;28;20317;-79
2022/11/17 13:12:27;;;;;;;10.27;6.90;;;8.40;99.90;;;;;;5091801;28;20297;-78
2022/11/17 13:15:04;;;;;;;9.87;7.30;;;8.40;99.90;;;;;;5093257;28;20361;-78
2022/11/17 13:17:41;;;;;;;8.53;6.43;;;8.40;99.90;;;;;;5094065;28;20318;-78
2022/11/17 13:20:28;;;;;;;10.70;7.20;;;8.40;99.90;;;;;;5094279;28;20289;-78
2022/11/17 13:23:19;;;;;;;9.70;7.37;;;8.50;99.90;;;;;;5093395;28;20294;-77
2022/11/17 13:25:45;;;;;;;11.80;6.77;;;8.50;99.90;;;;;;5093108;28;20355;-78
2022/11/17 13:28:26;;;;;;;10.07;7.37;;;8.50;99.90;;;;;;5093171;28;20293;-78
2022/11/17 13:30:51;;;;;;;10.67;7.90;;;8.50;99.90;;;;;;5094210;28;20051;-78
2022/11/17 13:33:22;;;;;;;11.63;7.70;;;8.60;99.90;;;;;;5092736;28;20637;-78
2022/11/17 13:35:50;;;;;;;11.97;7.97;;;8.60;99.90;;;;;;5094122;28;20040;-78
2022/11/17 13:38:21;;;;;;;10.13;7.80;;;8.60;99.90;;;;;;5093845;28;20298;-78